Time;durP1;ratioP1;P1;durP2;ratioP2;P2;SDS_P1;SDS_P2;PMS_P1;PMS_P2;Temp;Humidity;BMP_temperature;BMP_pressure;BME280_temperature;BME280_humidity;BME280_pressure;Samples;Min_cycle;Max_cycle;Signal;HPM_P1;HPM_P2
2023/06/15 00:01:28;;;;;;;9.10;4.93;;;;;;;17.81;53.43;101143.03;7397117;19;20088;-69
2023/06/15 00:03:57;;;;;;;6.05;4.40;;;;;;;17.74;53.21;101142.47;7395081;19;20537;-68
2023/06/15 00:06:27;;;;;;;8.38;4.90;;;;;;;17.67;53.27;101146.34;7397311;19;20073;-68
2023/06/15 00:08:58;;;;;;;6.95;5.05;;;;;;;17.62;53.36;101140.38;7397680;19;20038;-68
2023/06/15 00:11:27;;;;;;;8.73;5.43;;;;;;;17.57;53.63;101142.38;7397420;19;20022;-68
2023/06/15 00:13:55;;;;;;;10.35;5.30;;;;;;;17.50;53.69;101147.09;7395400;19;20425;-68
2023/06/15 00:16:30;;;;;;;8.10;5.47;;;;;;;17.46;53.50;101155.25;7396966;19;20023;-68
2023/06/15 00:19:01;;;;;;;9.85;5.72;;;;;;;17.40;53.76;101146.63;7396524;19;20351;-68
2023/06/15 00:21:30;;;;;;;7.50;5.50;;;;;;;17.38;53.79;101151.13;7396451;19;20370;-68
2023/06/15 00:24:02;;;;;;;6.53;4.88;;;;;;;17.35;53.98;101148.63;7395226;19;20025;-68
2023/06/15 00:26:30;;;;;;;6.07;4.93;;;;;;;17.35;53.58;101153.06;7397119;19;20010;-68
2023/06/15 00:28:59;;;;;;;10.07;5.07;;;;;;;17.32;53.97;101154.06;7396127;19;20549;-68
2023/06/15 00:31:27;;;;;;;5.28;4.55;;;;;;;17.30;53.94;101144.44;7396561;19;20018;-69
2023/06/15 00:33:56;;;;;;;7.03;5.10;;;;;;;17.26;54.07;101143.72;7395338;19;20014;-68
2023/06/15 00:36:24;;;;;;;9.93;5.70;;;;;;;17.25;54.06;101145.50;7396348;19;20018;-68
2023/06/15 00:38:52;;;;;;;6.93;5.00;;;;;;;17.23;54.25;101150.00;7396205;19;20078;-68
2023/06/15 00:41:23;;;;;;;8.85;5.72;;;;;;;17.21;54.30;101148.34;7394167;19;20082;-68
2023/06/15 00:43:52;;;;;;;7.15;4.85;;;;;;;17.19;54.13;101152.88;7393505;19;20498;-68
2023/06/15 00:46:21;;;;;;;7.85;5.57;;;;;;;17.17;54.50;101155.56;7396055;19;20014;-68
2023/06/15 00:48:49;;;;;;;6.82;5.15;;;;;;;17.15;54.48;101152.16;7395541;19;20541;-68
2023/06/15 00:51:18;;;;;;;9.68;5.53;;;;;;;17.14;54.61;101150.41;7395516;19;20082;-68
2023/06/15 00:53:47;;;;;;;6.18;4.90;;;;;;;17.10;54.58;101151.47;7394696;19;20029;-68
2023/06/15 00:56:17;;;;;;;7.10;5.22;;;;;;;17.06;54.57;101153.41;7393620;19;20074;-68
2023/06/15 00:58:50;;;;;;;6.15;5.22;;;;;;;17.03;54.83;101150.88;7395661;19;20023;-68
2023/06/15 01:01:18;;;;;;;7.65;5.60;;;;;;;17.00;54.78;101152.81;7395310;19;20158;-68
2023/06/15 01:03:47;;;;;;;8.48;5.53;;;;;;;16.95;54.68;101145.03;7394104;19;20021;-67
2023/06/15 01:06:19;;;;;;;6.68;4.85;;;;;;;16.89;55.21;101145.25;7395525;19;20037;-68
2023/06/15 01:08:52;;;;;;;5.78;5.03;;;;;;;16.86;55.02;101151.56;7395833;19;20011;-68
2023/06/15 01:11:21;;;;;;;7.45;5.57;;;;;;;16.83;55.34;101153.47;7395008;19;20018;-68
2023/06/15 01:13:54;;;;;;;7.90;6.20;;;;;;;16.78;55.19;101148.34;7394442;19;20086;-67
2023/06/15 01:16:29;;;;;;;6.95;5.53;;;;;;;16.73;55.77;101151.19;7394963;19;20486;-67
2023/06/15 01:18:59;;;;;;;6.00;5.15;;;;;;;16.67;55.68;101151.44;7393826;19;20074;-67
2023/06/15 01:21:29;;;;;;;8.90;4.88;;;;;;;16.62;55.88;101153.44;7395024;19;20018;-66
2023/06/15 01:24:17;;;;;;;11.68;5.68;;;;;;;16.58;56.40;101154.44;7393903;19;20014;-67
2023/06/15 01:26:52;;;;;;;9.15;5.47;;;;;;;16.50;56.42;101149.47;7395297;19;20033;-67
2023/06/15 01:29:26;;;;;;;8.40;5.88;;;;;;;16.45;56.75;101147.03;7394483;19;20023;-66
2023/06/15 01:31:57;;;;;;;7.97;6.57;;;;;;;16.39;56.76;101149.03;7399210;19;20074;-67
2023/06/15 01:34:25;;;;;;;8.82;5.78;;;;;;;16.33;56.70;101147.50;7398881;19;20077;-67
2023/06/15 01:36:53;;;;;;;6.65;5.53;;;;;;;16.27;57.08;101139.81;7399785;19;20078;-67
2023/06/15 01:39:22;;;;;;;7.00;5.55;;;;;;;16.22;57.26;101139.13;7402234;19;20078;-66
2023/06/15 01:41:53;;;;;;;7.03;5.75;;;;;;;16.16;57.39;101139.34;7402043;19;20022;-67
2023/06/15 01:44:22;;;;;;;6.00;5.30;;;;;;;16.07;57.50;101135.28;7398998;19;20419;-67
2023/06/15 01:46:51;;;;;;;7.53;5.38;;;;;;;16.01;57.30;101130.22;7401998;19;20095;-67
2023/06/15 01:49:19;;;;;;;9.95;5.57;;;;;;;15.94;57.52;101134.91;7401563;19;20506;-67
2023/06/15 01:51:48;;;;;;;6.07;4.63;;;;;;;15.87;57.53;101133.38;7401820;19;20077;-66
2023/06/15 01:54:17;;;;;;;7.47;4.63;;;;;;;15.80;57.55;101128.28;7399430;19;20090;-66
2023/06/15 01:56:45;;;;;;;7.22;5.40;;;;;;;15.75;57.60;101126.75;7401574;19;20077;-67
2023/06/15 01:59:16;;;;;;;6.75;5.05;;;;;;;15.71;57.81;101131.28;7401167;19;20418;-67
2023/06/15 02:01:45;;;;;;;7.00;4.93;;;;;;;15.64;57.74;101129.78;7398355;19;20078;-67
2023/06/15 02:04:13;;;;;;;11.10;5.22;;;;;;;15.57;58.08;101130.91;7398597;19;20046;-67
2023/06/15 02:06:41;;;;;;;9.05;4.63;;;;;;;15.50;57.84;101124.16;7400890;19;20078;-66
2023/06/15 02:09:10;;;;;;;7.05;4.60;;;;;;;15.44;57.88;101126.09;7398600;19;20018;-66
2023/06/15 02:11:38;;;;;;;5.78;4.95;;;;;;;15.40;58.06;101128.91;7401031;19;20078;-66
2023/06/15 02:14:09;;;;;;;6.10;4.32;;;;;;;15.35;58.20;101134.34;7398545;19;20365;-66
2023/06/15 02:16:40;;;;;;;7.95;4.15;;;;;;;15.29;58.33;101124.88;7400461;19;20486;-67
2023/06/15 02:19:09;;;;;;;5.43;4.32;;;;;;;15.25;58.25;101125.91;7401817;19;20018;-67
2023/06/15 02:21:37;;;;;;;8.25;4.35;;;;;;;15.23;58.26;101126.88;7402236;19;20466;-68
2023/06/15 02:24:07;;;;;;;7.25;5.05;;;;;;;15.20;58.41;101121.66;7399750;19;20031;-67
2023/06/15 02:26:35;;;;;;;8.30;5.28;;;;;;;15.17;58.48;101121.78;7400423;19;20035;-67
2023/06/15 02:29:03;;;;;;;12.32;5.13;;;;;;;15.13;58.64;101126.31;7401094;19;20426;-66
2023/06/15 02:31:32;;;;;;;5.20;4.38;;;;;;;15.08;58.57;101122.97;7400243;19;20081;-67
2023/06/15 02:34:03;;;;;;;5.95;4.80;;;;;;;15.04;58.75;101122.22;7398874;19;20022;-66
2023/06/15 02:36:32;;;;;;;7.63;4.90;;;;;;;15.00;58.79;101128.53;7399878;19;20424;-67
2023/06/15 02:39:01;;;;;;;10.60;4.57;;;;;;;14.96;58.76;101125.13;7397403;19;20022;-67
2023/06/15 02:41:30;;;;;;;9.13;4.63;;;;;;;14.91;59.10;101126.19;7397098;19;20023;-68
2023/06/15 02:43:58;;;;;;;8.30;4.70;;;;;;;14.88;58.96;101121.00;7397668;19;20078;-67
2023/06/15 02:46:27;;;;;;;7.30;4.93;;;;;;;14.83;59.34;101124.66;7399857;19;20014;-67
2023/06/15 02:48:56;;;;;;;9.85;5.60;;;;;;;14.80;59.24;101127.41;7397083;19;20074;-67
2023/06/15 02:51:28;;;;;;;6.57;4.60;;;;;;;14.78;59.68;101134.50;7399410;19;20510;-67
2023/06/15 02:53:56;;;;;;;7.57;4.70;;;;;;;14.73;59.41;101128.50;7397709;19;20078;-67
2023/06/15 02:56:25;;;;;;;6.68;5.07;;;;;;;14.70;59.56;101133.91;7397222;19;20090;-67
2023/06/15 02:58:53;;;;;;;7.78;4.95;;;;;;;14.68;59.69;101142.78;7398998;19;20022;-67
2023/06/15 03:01:22;;;;;;;12.35;4.90;;;;;;;14.65;59.91;101143.75;7399359;19;20015;-67
2023/06/15 03:03:51;;;;;;;8.05;5.10;;;;;;;14.61;59.97;101142.13;7396406;19;20015;-68
2023/06/15 03:06:21;;;;;;;6.88;4.80;;;;;;;14.56;60.08;101144.00;7400741;19;20011;-67
2023/06/15 03:08:52;;;;;;;7.47;4.97;;;;;;;14.50;60.53;101142.44;7396909;19;20022;-67
2023/06/15 03:11:20;;;;;;;7.75;5.75;;;;;;;14.44;60.41;101134.72;7399390;19;20094;-67
2023/06/15 03:13:49;;;;;;;7.88;5.10;;;;;;;14.39;60.48;101141.91;7397104;19;20090;-67
2023/06/15 03:16:18;;;;;;;7.82;4.55;;;;;;;14.34;60.96;101136.78;7398440;19;20014;-67
2023/06/15 03:18:46;;;;;;;9.65;4.97;;;;;;;14.30;60.98;101143.06;7398519;19;20091;-67
2023/06/15 03:21:15;;;;;;;9.30;4.85;;;;;;;14.27;60.98;101141.38;7398491;19;20492;-67
2023/06/15 03:23:44;;;;;;;8.15;4.78;;;;;;;14.26;61.17;101139.66;7397066;19;20018;-67
2023/06/15 03:26:16;;;;;;;7.68;5.28;;;;;;;14.24;61.48;101137.97;7396488;19;20023;-67
2023/06/15 03:28:45;;;;;;;9.15;5.30;;;;;;;14.21;61.51;101140.72;7398206;19;20358;-66
2023/06/15 03:31:40;;;;;;;6.03;4.75;;;;;;;14.17;61.44;101138.16;7398025;19;20363;-67
2023/06/15 03:34:09;;;;;;;8.13;5.53;;;;;;;14.12;61.83;101139.22;7396650;19;20019;-67
2023/06/15 03:36:44;;;;;;;6.53;4.80;;;;;;;14.07;61.92;101147.25;7398261;19;20098;-66
2023/06/15 03:39:13;;;;;;;8.88;5.57;;;;;;;14.03;62.03;101140.34;7398657;19;20022;-66
2023/06/15 03:41:44;;;;;;;7.72;5.10;;;;;;;14.01;62.19;101152.72;7398058;19;20028;-68
2023/06/15 03:44:19;;;;;;;8.13;5.22;;;;;;;14.02;62.14;101157.09;7395852;19;20375;-68
2023/06/15 03:46:48;;;;;;;9.38;5.95;;;;;;;14.02;62.34;101152.66;7398185;19;20031;-67
2023/06/15 03:49:16;;;;;;;8.10;6.03;;;;;;;14.00;62.41;101148.34;7398279;19;20022;-66
2023/06/15 03:51:45;;;;;;;14.68;7.88;;;;;;;14.04;62.40;101160.56;7397598;19;20549;-67
2023/06/15 03:54:13;;;;;;;7.47;5.60;;;;;;;14.04;62.46;101160.56;7394340;19;20025;-67
2023/06/15 03:56:45;;;;;;;7.57;5.32;;;;;;;14.05;62.52;101158.78;7397927;19;20018;-67
2023/06/15 03:59:13;;;;;;;8.05;5.25;;;;;;;14.06;62.52;101163.16;7398081;19;20074;-68
2023/06/15 04:01:42;;;;;;;8.10;5.13;;;;;;;14.05;62.46;101156.13;7395127;19;20476;-67
2023/06/15 04:04:14;;;;;;;9.20;5.70;;;;;;;14.04;62.75;101152.66;7395150;19;20022;-67
2023/06/15 04:06:46;;;;;;;8.18;5.10;;;;;;;14.06;62.74;101147.31;7396564;19;20035;-67
2023/06/15 04:09:14;;;;;;;8.30;5.18;;;;;;;14.04;62.88;101144.72;7396544;19;20466;-67
2023/06/15 04:11:45;;;;;;;7.90;5.43;;;;;;;14.06;62.94;101144.69;7396433;19;20549;-67
2023/06/15 04:14:14;;;;;;;13.18;5.78;;;;;;;14.07;63.13;101146.41;7395609;19;20019;-67
2023/06/15 04:16:42;;;;;;;9.30;5.45;;;;;;;14.05;62.92;101135.88;7395135;19;20011;-67
2023/06/15 04:19:11;;;;;;;8.18;5.63;;;;;;;14.08;62.74;101151.63;7396389;19;20081;-67
2023/06/15 04:21:39;;;;;;;6.95;5.35;;;;;;;14.08;62.94;101151.63;7396091;19;20589;-67
2023/06/15 04:24:08;;;;;;;9.32;5.90;;;;;;;14.10;63.16;101152.47;7394550;19;20074;-67
2023/06/15 04:26:36;;;;;;;13.45;6.18;;;;;;;14.08;63.09;101142.84;7395940;19;20494;-68
2023/06/15 04:29:07;;;;;;;8.93;5.45;;;;;;;14.06;63.54;101148.16;7394965;19;20078;-68
2023/06/15 04:31:36;;;;;;;8.85;5.10;;;;;;;14.03;63.43;101158.81;7396718;19;20027;-67
2023/06/15 04:34:06;;;;;;;7.53;5.38;;;;;;;14.01;63.53;101152.72;7395052;19;20026;-67
2023/06/15 04:36:38;;;;;;;7.95;5.60;;;;;;;13.98;63.60;101152.81;7393902;19;20014;-67
2023/06/15 04:39:07;;;;;;;8.25;5.35;;;;;;;13.98;63.91;101161.59;7396266;19;20010;-67
2023/06/15 04:41:35;;;;;;;10.68;5.70;;;;;;;13.99;63.89;101168.59;7395379;19;20074;-67
2023/06/15 04:44:11;;;;;;;5.85;5.32;;;;;;;14.00;63.86;101167.69;7393049;19;20427;-67
2023/06/15 04:46:42;;;;;;;9.48;6.20;;;;;;;14.00;64.15;101164.19;7396124;19;20014;-67
2023/06/15 04:49:12;;;;;;;8.68;4.90;;;;;;;13.99;64.24;101159.84;7393886;19;20022;-67
2023/06/15 04:51:40;;;;;;;6.38;5.00;;;;;;;13.96;64.46;101160.78;7393656;19;20018;-69
2023/06/15 04:54:09;;;;;;;6.68;4.78;;;;;;;13.95;64.49;101166.09;7394043;19;20014;-67
2023/06/15 04:56:37;;;;;;;8.57;5.20;;;;;;;13.98;64.58;101164.22;7393202;19;20588;-67
2023/06/15 04:59:06;;;;;;;9.50;5.18;;;;;;;14.02;64.42;101157.09;7393521;19;20035;-67
2023/06/15 05:01:34;;;;;;;7.63;5.55;;;;;;;14.07;64.31;101159.59;7394013;19;20018;-68
2023/06/15 05:04:06;;;;;;;8.35;5.40;;;;;;;14.11;64.19;101163.88;7393883;19;20039;-69
2023/06/15 05:06:35;;;;;;;8.05;5.50;;;;;;;14.17;64.33;101164.53;7395154;19;20128;-66
2023/06/15 05:09:03;;;;;;;7.43;5.65;;;;;;;14.26;64.10;101165.19;7392336;19;20350;-67
2023/06/15 05:11:32;;;;;;;10.02;5.53;;;;;;;14.31;63.95;101158.84;7394248;19;20094;-67
2023/06/15 05:14:00;;;;;;;8.50;5.75;;;;;;;14.40;63.72;101160.34;7393141;19;20112;-67
2023/06/15 05:16:29;;;;;;;9.65;5.43;;;;;;;14.48;63.81;101163.63;7392543;19;20014;-67
2023/06/15 05:18:57;;;;;;;6.80;5.07;;;;;;;14.56;63.52;101162.50;7392767;19;20078;-67
2023/06/15 05:21:28;;;;;;;8.32;6.05;;;;;;;14.62;63.42;101157.91;7391747;19;20070;-67
2023/06/15 05:23:57;;;;;;;10.85;5.03;;;;;;;14.68;63.30;101162.13;7391778;19;20070;-67
2023/06/15 05:26:25;;;;;;;9.35;4.90;;;;;;;14.73;63.08;101164.63;7391875;19;20078;-67
2023/06/15 05:28:54;;;;;;;7.05;4.45;;;;;;;14.76;63.09;101165.41;7392725;19;20046;-67
2023/06/15 05:31:22;;;;;;;7.20;4.28;;;;;;;14.82;62.71;101175.78;7394234;19;20079;-67
2023/06/15 05:33:51;;;;;;;9.32;4.88;;;;;;;14.92;62.78;101172.81;7393358;19;20022;-68
2023/06/15 05:36:20;;;;;;;5.85;4.93;;;;;;;14.98;62.48;101169.97;7392620;19;20015;-67
2023/06/15 05:38:51;;;;;;;14.85;5.10;;;;;;;15.02;62.37;101173.38;7394085;19;20091;-68
2023/06/15 05:41:19;;;;;;;5.15;4.43;;;;;;;15.08;62.44;101176.69;7394176;19;20081;-67
2023/06/15 05:43:47;;;;;;;9.52;5.07;;;;;;;15.14;62.14;101179.13;7391856;19;20090;-65
2023/06/15 05:46:16;;;;;;;11.82;5.07;;;;;;;15.19;62.11;101176.31;7392788;19;20499;-66
2023/06/15 05:48:44;;;;;;;7.00;4.90;;;;;;;15.24;61.93;101178.78;7393758;19;20078;-66
2023/06/15 05:51:13;;;;;;;10.90;5.00;;;;;;;15.26;61.85;101182.25;7391453;19;20355;-66
2023/06/15 05:53:42;;;;;;;8.15;4.75;;;;;;;15.28;61.96;101172.50;7391726;19;20043;-66
2023/06/15 05:56:13;;;;;;;10.93;4.85;;;;;;;15.30;61.86;101179.47;7392348;19;20010;-66
2023/06/15 05:58:42;;;;;;;9.00;4.80;;;;;;;15.32;61.97;101184.69;7393299;19;20074;-67
2023/06/15 06:01:10;;;;;;;9.38;4.68;;;;;;;15.35;61.80;101187.22;7390751;19;20070;-66
2023/06/15 06:03:39;;;;;;;7.45;4.60;;;;;;;15.39;61.92;101180.94;7390801;19;20078;-66
2023/06/15 06:06:07;;;;;;;8.27;4.72;;;;;;;15.44;62.01;101193.97;7390744;19;20397;-66
2023/06/15 06:08:35;;;;;;;11.25;5.10;;;;;;;15.48;62.00;101198.25;7392833;19;20023;-66
2023/06/15 06:11:07;;;;;;;7.20;4.38;;;;;;;15.48;62.04;101196.47;7393076;19;20431;-66
2023/06/15 06:13:38;;;;;;;9.27;4.57;;;;;;;15.52;61.90;101193.69;7390974;19;20512;-66
2023/06/15 06:16:07;;;;;;;8.50;4.43;;;;;;;15.56;61.85;101192.69;7392548;19;20081;-67
2023/06/15 06:18:35;;;;;;;5.88;4.78;;;;;;;15.60;61.47;101192.50;7399881;19;20025;-65
2023/06/15 06:21:04;;;;;;;5.82;4.18;;;;;;;15.64;61.42;101198.56;7400255;19;20545;-66
2023/06/15 06:23:34;;;;;;;6.43;4.68;;;;;;;15.69;61.42;101199.25;7399181;19;20022;-65
2023/06/15 06:26:03;;;;;;;9.07;4.10;;;;;;;15.71;61.09;101200.06;7400657;19;20019;-66
2023/06/15 06:28:31;;;;;;;13.88;4.13;;;;;;;15.74;61.21;101194.66;7399846;19;20078;-66
2023/06/15 06:31:02;;;;;;;7.18;3.90;;;;;;;15.78;61.30;101190.13;7399512;19;20419;-64
2023/06/15 06:33:30;;;;;;;9.52;4.95;;;;;;;15.83;60.87;101180.25;7398625;19;20082;-64
2023/06/15 06:35:59;;;;;;;7.43;4.15;;;;;;;15.86;61.08;101179.28;7398501;19;20085;-65
2023/06/15 06:38:27;;;;;;;9.43;4.45;;;;;;;15.91;60.72;101177.31;7399149;19;20484;-65
2023/06/15 06:40:56;;;;;;;8.48;4.55;;;;;;;15.92;60.80;101179.94;7399697;19;20086;-66
2023/06/15 06:43:25;;;;;;;4.88;4.05;;;;;;;15.97;60.71;101185.03;7396902;19;20018;-65
2023/06/15 06:45:53;;;;;;;7.07;4.50;;;;;;;16.07;60.64;101181.13;7395995;19;20436;-66
2023/06/15 06:48:24;;;;;;;9.10;4.40;;;;;;;16.13;60.43;101183.53;7399088;19;20074;-66
2023/06/15 06:50:52;;;;;;;7.18;4.18;;;;;;;16.22;59.99;101184.97;7397286;19;20081;-66
2023/06/15 06:53:21;;;;;;;8.18;4.55;;;;;;;16.31;59.99;101186.41;7397799;19;20082;-66
2023/06/15 06:55:50;;;;;;;6.25;3.60;;;;;;;16.42;59.94;101184.19;7396577;19;20018;-66
2023/06/15 06:58:19;;;;;;;6.95;4.10;;;;;;;16.48;59.38;101180.47;7399052;19;20022;-66
2023/06/15 07:00:47;;;;;;;8.32;4.25;;;;;;;16.54;59.11;101187.28;7396804;19;20010;-65
2023/06/15 07:03:16;;;;;;;8.00;3.92;;;;;;;16.55;59.10;101184.56;7397800;19;20034;-66
2023/06/15 07:05:47;;;;;;;12.15;4.20;;;;;;;16.57;58.19;101187.19;7399298;19;20026;-66
2023/06/15 07:08:16;;;;;;;6.30;3.95;;;;;;;16.61;58.50;101186.97;7398852;19;20099;-66
2023/06/15 07:10:45;;;;;;;9.23;3.90;;;;;;;16.66;58.12;101186.81;7397026;19;20018;-66
2023/06/15 07:13:13;;;;;;;4.63;3.90;;;;;;;16.71;57.88;101184.84;7397486;19;20018;-65
2023/06/15 07:15:42;;;;;;;7.82;3.90;;;;;;;16.78;57.98;101185.44;7397390;19;20031;-65
2023/06/15 07:18:14;;;;;;;4.43;3.55;;;;;;;16.87;57.52;101181.56;7398810;19;20082;-66
2023/06/15 07:20:42;;;;;;;6.22;4.35;;;;;;;16.94;57.59;101175.09;7398975;19;20070;-65
2023/06/15 07:23:13;;;;;;;8.85;4.78;;;;;;;17.02;57.41;101178.31;7397637;19;20078;-65
2023/06/15 07:25:42;;;;;;;6.15;4.13;;;;;;;17.08;57.24;101167.44;7397538;19;20093;-66
2023/06/15 07:28:10;;;;;;;7.45;4.03;;;;;;;17.18;57.11;101169.72;7397535;19;20074;-66
2023/06/15 07:30:38;;;;;;;7.90;4.57;;;;;;;17.29;56.95;101172.75;7397641;19;20088;-65
2023/06/15 07:33:07;;;;;;;8.38;3.92;;;;;;;17.40;56.53;101173.16;7395528;19;20431;-66
2023/06/15 07:35:35;;;;;;;6.55;3.33;;;;;;;17.53;56.41;101175.28;7395917;19;20023;-66
2023/06/15 07:38:04;;;;;;;9.13;4.32;;;;;;;17.67;55.91;101172.88;7397814;19;20086;-66
2023/06/15 07:40:35;;;;;;;8.90;3.72;;;;;;;17.81;55.97;101171.41;7399656;19;20073;-67
2023/06/15 07:43:04;;;;;;;4.68;3.63;;;;;;;17.96;55.58;101162.75;7396236;19;20094;-65
2023/06/15 07:45:32;;;;;;;6.60;3.45;;;;;;;18.10;55.12;101166.53;7395818;19;20087;-66
2023/06/15 07:48:01;;;;;;;5.20;3.63;;;;;;;18.22;53.69;101165.97;7397454;19;20545;-66
2023/06/15 07:50:29;;;;;;;13.07;4.45;;;;;;;18.32;52.83;101159.28;7398454;19;20097;-66
2023/06/15 07:52:58;;;;;;;4.40;3.78;;;;;;;18.45;52.10;101158.72;7396427;19;20026;-66
2023/06/15 07:55:26;;;;;;;4.78;4.18;;;;;;;18.59;51.86;101161.56;7396240;19;20026;-67
2023/06/15 07:57:57;;;;;;;5.13;3.40;;;;;;;18.72;51.08;101159.16;7395365;19;20082;-66
2023/06/15 08:00:26;;;;;;;7.15;3.40;;;;;;;18.83;51.16;101156.84;7395570;19;20031;-68
2023/06/15 08:02:54;;;;;;;5.07;3.75;;;;;;;18.94;51.10;101155.47;7396513;19;20073;-66
2023/06/15 08:05:23;;;;;;;6.68;3.75;;;;;;;19.03;50.65;101158.53;7397103;19;20082;-68
2023/06/15 08:07:52;;;;;;;4.63;3.30;;;;;;;19.13;50.53;101158.03;7396877;19;20554;-67
2023/06/15 08:10:21;;;;;;;5.43;3.30;;;;;;;19.18;50.04;101154.22;7394930;19;20074;-67
2023/06/15 08:12:50;;;;;;;6.45;3.63;;;;;;;19.27;50.18;101150.25;7396845;19;20018;-67
2023/06/15 08:15:21;;;;;;;6.32;3.40;;;;;;;19.34;49.27;101148.94;7395395;19;20078;-67
2023/06/15 08:17:49;;;;;;;6.90;3.30;;;;;;;19.42;49.37;101145.03;7395095;19;20084;-68
2023/06/15 08:20:19;;;;;;;6.97;3.25;;;;;;;19.50;49.20;101153.50;7395691;19;20045;-66
2023/06/15 08:22:47;;;;;;;9.00;3.50;;;;;;;19.59;49.09;101154.78;7394674;19;20018;-66
2023/06/15 08:25:16;;;;;;;4.30;3.40;;;;;;;19.67;48.42;101150.75;7396471;19;20426;-66
2023/06/15 08:27:45;;;;;;;5.38;3.20;;;;;;;19.75;47.92;101152.16;7394047;19;20374;-67
2023/06/15 08:30:15;;;;;;;8.25;3.50;;;;;;;19.82;47.08;101150.91;7394203;19;20383;-67
2023/06/15 08:32:46;;;;;;;7.93;3.30;;;;;;;19.92;47.39;101143.31;7395010;19;20430;-67
2023/06/15 08:35:14;;;;;;;6.88;3.20;;;;;;;20.04;46.93;101142.59;7395841;19;20086;-67
2023/06/15 08:37:43;;;;;;;5.75;3.05;;;;;;;20.18;47.07;101141.84;7394420;19;20032;-65
2023/06/15 08:40:13;;;;;;;4.90;3.35;;;;;;;20.30;46.47;101143.81;7395586;19;20014;-67
2023/06/15 08:42:42;;;;;;;6.13;4.20;;;;;;;20.39;45.82;101137.13;7395397;19;20500;-69
2023/06/15 08:45:12;;;;;;;6.13;3.35;;;;;;;20.48;45.88;101141.06;7393955;19;20014;-69
2023/06/15 08:47:42;;;;;;;7.25;3.55;;;;;;;20.58;45.08;101144.06;7394948;19;20478;-69
2023/06/15 08:50:13;;;;;;;9.40;3.70;;;;;;;20.63;43.71;101137.50;7395630;19;20082;-69
2023/06/15 08:52:45;;;;;;;4.38;3.22;;;;;;;20.71;44.23;101138.91;7394138;19;20015;-68
2023/06/15 08:55:16;;;;;;;6.55;3.70;;;;;;;20.80;43.63;101133.91;7395243;19;20018;-68
2023/06/15 08:57:44;;;;;;;6.32;3.75;;;;;;;20.93;43.21;101143.84;7393125;19;20074;-68
2023/06/15 09:00:14;;;;;;;6.38;3.20;;;;;;;21.05;43.01;101143.09;7393339;19;20518;-69
2023/06/15 09:02:46;;;;;;;8.55;3.63;;;;;;;21.19;43.08;101131.59;7393134;19;20018;-67
2023/06/15 09:05:17;;;;;;;5.95;3.50;;;;;;;21.35;42.29;101133.38;7394068;19;20022;-68
2023/06/15 09:07:46;;;;;;;4.55;2.97;;;;;;;21.50;42.29;101132.41;7394769;19;20377;-68
2023/06/15 09:10:22;;;;;;;5.05;3.55;;;;;;;21.63;40.63;101130.75;7395141;19;20078;-68
2023/06/15 09:12:54;;;;;;;5.90;3.67;;;;;;;21.78;40.78;101133.41;7395163;19;20025;-68
2023/06/15 09:15:24;;;;;;;5.82;3.45;;;;;;;21.89;40.60;101132.72;7394930;19;20026;-67
2023/06/15 09:17:53;;;;;;;7.75;3.53;;;;;;;21.96;40.20;101144.72;7392843;19;20015;-67
2023/06/15 09:20:26;;;;;;;6.78;3.92;;;;;;;22.01;39.96;101128.41;7394278;19;20074;-69
2023/06/15 09:22:54;;;;;;;7.47;3.30;;;;;;;22.07;39.95;101120.00;7394685;19;20093;-68
2023/06/15 09:25:23;;;;;;;10.35;3.75;;;;;;;22.15;39.24;101132.84;7392739;19;20449;-68
2023/06/15 09:27:57;;;;;;;6.40;3.15;;;;;;;22.20;39.38;101123.56;7394287;19;20090;-67
2023/06/15 09:30:32;;;;;;;7.68;4.53;;;;;;;22.26;39.41;101119.66;7394431;19;20015;-68
2023/06/15 09:33:00;;;;;;;6.68;3.20;;;;;;;22.33;39.05;101130.81;7393794;19;20409;-68
2023/06/15 09:35:31;;;;;;;10.07;3.30;;;;;;;22.36;38.88;101119.94;7393614;19;20357;-68
2023/06/15 09:38:00;;;;;;;4.15;3.22;;;;;;;22.37;38.85;101138.56;7391929;19;20541;-68
2023/06/15 09:40:29;;;;;;;7.25;3.42;;;;;;;22.36;37.89;101125.28;7395367;19;20031;-68
2023/06/15 09:42:58;;;;;;;6.65;3.15;;;;;;;22.33;37.88;101115.63;7393098;19;20019;-68
2023/06/15 09:45:27;;;;;;;5.03;2.80;;;;;;;22.34;37.68;101111.97;7391300;19;20027;-68
2023/06/15 09:47:58;;;;;;;5.00;2.95;;;;;;;22.35;35.98;101118.22;7392102;19;20070;-68
2023/06/15 09:50:32;;;;;;;4.63;3.40;;;;;;;22.34;36.00;101113.81;7393939;19;20081;-68
2023/06/15 09:53:04;;;;;;;4.32;3.15;;;;;;;22.38;36.70;101110.00;7396902;19;20070;-68
2023/06/15 09:55:32;;;;;;;3.10;2.85;;;;;;;22.48;36.02;101102.25;7401954;19;20032;-68
2023/06/15 09:58:01;;;;;;;7.40;3.58;;;;;;;22.59;34.84;101107.72;7398544;19;20486;-69
2023/06/15 10:00:30;;;;;;;8.65;3.63;;;;;;;22.71;35.05;101106.03;7401127;19;20091;-68
2023/06/15 10:03:02;;;;;;;8.35;3.70;;;;;;;22.86;34.93;101098.78;7398839;19;20015;-68
2023/06/15 10:05:35;;;;;;;6.65;3.92;;;;;;;23.06;33.96;101092.09;7401134;19;20011;-70
2023/06/15 10:08:07;;;;;;;4.47;3.13;;;;;;;23.24;33.90;101098.88;7397642;19;20031;-68
2023/06/15 10:10:39;;;;;;;8.35;3.50;;;;;;;23.41;33.61;101084.28;7398097;19;20026;-68
2023/06/15 10:13:10;;;;;;;6.55;2.85;;;;;;;23.52;34.08;101083.53;7399599;19;20042;-69
2023/06/15 10:15:41;;;;;;;7.13;3.38;;;;;;;23.64;34.17;101086.31;7398079;19;20035;-67
2023/06/15 10:18:18;;;;;;;7.00;3.55;;;;;;;23.76;34.12;101082.75;7397667;19;20591;-68
2023/06/15 10:20:52;;;;;;;7.15;3.40;;;;;;;23.84;33.18;101096.44;7397686;19;20019;-68
2023/06/15 10:23:26;;;;;;;6.85;3.40;;;;;;;23.83;33.28;101091.19;7399029;19;20078;-67
2023/06/15 10:25:57;;;;;;;8.45;3.45;;;;;;;23.76;32.48;101106.88;7399859;19;20082;-67
2023/06/15 10:28:26;;;;;;;3.78;3.05;;;;;;;23.68;32.91;101098.50;7399809;19;20087;-68
2023/06/15 10:31:03;;;;;;;5.00;3.38;;;;;;;23.62;33.41;101085.56;7400210;19;20011;-69
2023/06/15 10:33:38;;;;;;;5.88;3.67;;;;;;;23.55;32.95;101090.50;7398944;19;20018;-67
2023/06/15 10:36:27;;;;;;;4.03;3.33;;;;;;;23.49;33.44;101086.41;7398017;19;20022;-68
2023/06/15 10:39:03;;;;;;;6.20;3.20;;;;;;;23.42;33.72;101087.84;7399582;19;20082;-68
2023/06/15 10:41:32;;;;;;;7.03;3.22;;;;;;;23.43;33.90;101086.88;7396996;19;20025;-68
2023/06/15 10:44:02;;;;;;;4.32;3.00;;;;;;;23.51;33.56;101076.47;7397500;19;20018;-68
2023/06/15 10:46:32;;;;;;;4.65;3.20;;;;;;;23.64;33.21;101076.44;7400007;19;20040;-68
2023/06/15 10:49:05;;;;;;;8.20;3.75;;;;;;;23.78;32.24;101074.59;7396440;19;20404;-68
2023/06/15 10:51:41;;;;;;;8.38;3.97;;;;;;;23.91;32.81;101072.78;7398361;19;20515;-68
2023/06/15 10:54:23;;;;;;;7.20;2.78;;;;;;;23.97;32.21;101074.13;7397451;19;20425;-68
2023/06/15 10:56:53;;;;;;;7.60;3.30;;;;;;;23.95;33.04;101073.38;7396537;19;20019;-67
2023/06/15 10:59:41;;;;;;;5.30;3.17;;;;;;;23.85;32.25;101076.72;7398604;19;20492;-67
2023/06/15 11:02:39;;;;;;;9.65;3.20;;;;;;;23.77;32.90;101073.75;7396567;19;20038;-68
2023/06/15 11:05:09;;;;;;;5.03;2.88;;;;;;;23.77;32.66;101071.06;7397094;19;20022;-67
2023/06/15 11:07:43;;;;;;;11.93;3.10;;;;;;;23.69;32.88;101084.16;7395686;19;20385;-68
2023/06/15 11:10:16;;;;;;;8.20;3.53;;;;;;;23.57;33.14;101076.03;7399277;19;20082;-68
2023/06/15 11:12:46;;;;;;;4.07;3.10;;;;;;;23.47;33.43;101076.78;7396278;19;20027;-69
2023/06/15 11:15:17;;;;;;;8.23;3.20;;;;;;;23.33;33.87;101067.94;7396119;19;20022;-68
2023/06/15 11:17:59;;;;;;;7.22;3.30;;;;;;;23.21;33.83;101079.50;7395163;19;20499;-68
2023/06/15 11:21:02;;;;;;;4.57;3.45;;;;;;;23.09;33.95;101070.47;7397252;19;20407;-68
2023/06/15 11:23:37;;;;;;;8.88;3.78;;;;;;;23.05;34.26;101066.28;7396273;19;20046;-69
2023/06/15 11:26:05;;;;;;;9.82;3.80;;;;;;;23.13;34.06;101063.06;7398171;19;20051;-68
2023/06/15 11:28:34;;;;;;;6.63;3.55;;;;;;;23.28;33.75;101059.38;7395414;19;20083;-67
2023/06/15 11:31:05;;;;;;;5.18;3.22;;;;;;;23.49;33.80;101051.59;7397425;19;20019;-67
2023/06/15 11:33:36;;;;;;;8.48;3.13;;;;;;;23.72;33.68;101041.06;7395517;19;20015;-68
2023/06/15 11:36:06;;;;;;;5.68;3.60;;;;;;;23.93;33.11;101051.22;7395536;19;20029;-68
2023/06/15 11:38:38;;;;;;;8.25;3.53;;;;;;;24.07;32.80;101056.41;7395131;19;20442;-69